createdAt,value
2023-04-09T00:00:29.198Z,96297.00
2023-04-09T00:03:14.542Z,96300.13
2023-04-09T00:06:00.085Z,96300.50
2023-04-09T00:08:45.677Z,96295.44
2023-04-09T00:11:31.255Z,96294.19
2023-04-09T00:14:16.526Z,96293.50
2023-04-09T00:17:01.686Z,96298.06
2023-04-09T00:19:47.015Z,96291.22
2023-04-09T00:22:32.305Z,96300.00
2023-04-09T00:25:17.702Z,96302.34
2023-04-09T00:28:03.473Z,96297.47
2023-04-09T00:30:48.410Z,96288.78
2023-04-09T00:33:33.789Z,96304.34
2023-04-09T00:36:19.120Z,96302.56
2023-04-09T00:39:04.532Z,96294.19
2023-04-09T00:41:49.746Z,96303.97
2023-04-09T00:44:34.980Z,96309.84
2023-04-09T00:47:20.437Z,96305.88
2023-04-09T00:50:06.466Z,96300.50
2023-04-09T00:52:52.113Z,96306.25
2023-04-09T00:55:39.968Z,96308.53
2023-04-09T00:58:25.018Z,96300.34
2023-04-09T01:01:10.403Z,96308.50
2023-04-09T01:03:56.485Z,96298.34
2023-04-09T01:06:41.432Z,96305.53
2023-04-09T01:09:42.543Z,96305.16
2023-04-09T01:12:37.034Z,96302.84
2023-04-09T01:15:33.822Z,96302.34
2023-04-09T01:18:36.127Z,96295.44
2023-04-09T01:21:26.308Z,96298.22
2023-04-09T01:24:31.326Z,96298.88
2023-04-09T01:27:17.606Z,96301.19
2023-04-09T01:30:05.172Z,96306.94
2023-04-09T01:32:52.456Z,96300.63
2023-04-09T01:35:38.611Z,96299.88
2023-04-09T01:38:25.659Z,96298.31
2023-04-09T01:41:16.619Z,96305.22
2023-04-09T01:44:03.471Z,96300.94
2023-04-09T01:46:50.124Z,96302.22
2023-04-09T01:49:36.114Z,96300.63
2023-04-09T01:52:21.862Z,96298.75
2023-04-09T01:55:07.830Z,96300.63
2023-04-09T01:57:53.324Z,96303.75
2023-04-09T02:00:41.486Z,96302.63
2023-04-09T02:03:33.893Z,96303.13
2023-04-09T02:06:56.667Z,96306.13
2023-04-09T02:09:45.092Z,96307.47
2023-04-09T02:12:33.387Z,96311.44
2023-04-09T02:15:21.683Z,96313.06
2023-04-09T02:18:28.607Z,96304.53
2023-04-09T02:21:13.912Z,96311.44
2023-04-09T02:23:59.714Z,96312.88
2023-04-09T02:26:44.846Z,96310.94
2023-04-09T02:29:33.492Z,96306.69
2023-04-09T02:32:18.913Z,96311.44
2023-04-09T02:35:04.406Z,96304.13
2023-04-09T02:37:49.392Z,96306.44
2023-04-09T02:40:34.667Z,96309.41
2023-04-09T02:43:19.794Z,96310.75
2023-04-09T02:46:05.419Z,96309.94
2023-04-09T02:48:50.945Z,96306.34
2023-04-09T02:51:36.882Z,96305.31
2023-04-09T02:54:22.162Z,96292.91
2023-04-09T02:57:07.494Z,96296.69
2023-04-09T02:59:52.840Z,96290.50
2023-04-09T03:02:38.265Z,96290.84
2023-04-09T03:05:23.591Z,96292.47
2023-04-09T03:08:08.858Z,96290.66
2023-04-09T03:10:54.160Z,96294.53
2023-04-09T03:13:39.500Z,96297.19
2023-04-09T03:16:25.708Z,96292.50
2023-04-09T03:19:11.289Z,96288.22
2023-04-09T03:21:56.622Z,96294.19
2023-04-09T03:24:42.027Z,96289.03
2023-04-09T03:27:27.324Z,96289.69
2023-04-09T03:30:12.893Z,96293.66
2023-04-09T03:32:59.535Z,96288.09
2023-04-09T03:35:44.843Z,96294.84
2023-04-09T03:38:29.976Z,96297.00
2023-04-09T03:41:15.574Z,96293.53
2023-04-09T03:44:00.744Z,96296.16
2023-04-09T03:46:46.428Z,96292.44
2023-04-09T03:49:31.995Z,96291.59
2023-04-09T03:52:17.204Z,96287.34
2023-04-09T03:55:03.631Z,96293.69
2023-04-09T03:57:49.138Z,96298.78
2023-04-09T04:00:34.589Z,96291.75
2023-04-09T04:03:20.064Z,96303.13
2023-04-09T04:06:05.383Z,96302.41
2023-04-09T04:08:50.981Z,96304.06
2023-04-09T04:11:36.417Z,96315.22
2023-04-09T04:14:21.854Z,96325.28
2023-04-09T04:17:07.070Z,96320.97
2023-04-09T04:19:52.424Z,96317.38
2023-04-09T04:22:37.651Z,96315.81
2023-04-09T04:25:22.790Z,96317.53
2023-04-09T04:28:08.899Z,96320.81
2023-04-09T04:30:53.807Z,96313.59
2023-04-09T04:33:40.719Z,96318.84
2023-04-09T04:36:26.205Z,96324.06
2023-04-09T04:39:11.340Z,96325.88
2023-04-09T04:41:56.964Z,96328.66
2023-04-09T04:44:41.866Z,96330.59
2023-04-09T04:47:27.412Z,96332.31
2023-04-09T04:50:12.418Z,96328.81
2023-04-09T04:52:57.736Z,96327.91
2023-04-09T04:55:43.104Z,96329.34
2023-04-09T04:58:28.310Z,96334.72
2023-04-09T05:01:13.807Z,96341.16
2023-04-09T05:03:58.952Z,96339.75
2023-04-09T05:06:44.209Z,96348.19
2023-04-09T05:09:29.495Z,96353.47
2023-04-09T05:12:15.502Z,96349.28
2023-04-09T05:15:00.552Z,96347.88
2023-04-09T05:17:45.809Z,96354.75
2023-04-09T05:20:31.205Z,96342.66
2023-04-09T05:23:16.508Z,96354.53
2023-04-09T05:26:01.937Z,96350.19
2023-04-09T05:28:47.546Z,96354.16
2023-04-09T05:31:32.633Z,96346.53
2023-04-09T05:34:17.923Z,96354.75
2023-04-09T05:37:03.174Z,96354.63
2023-04-09T05:39:48.500Z,96351.63
2023-04-09T05:42:33.989Z,96351.38
2023-04-09T05:45:18.952Z,96354.06
2023-04-09T05:48:04.509Z,96358.88
2023-04-09T05:50:55.460Z,96355.56
2023-04-09T05:53:40.612Z,96354.97
2023-04-09T05:56:27.178Z,96354.97
2023-04-09T05:59:14.653Z,96352.81
2023-04-09T06:02:00.137Z,96359.69
2023-04-09T06:04:45.609Z,96361.78
2023-04-09T06:07:30.853Z,96363.56
2023-04-09T06:10:16.298Z,96380.47
2023-04-09T06:13:01.525Z,96360.38
2023-04-09T06:15:46.926Z,96368.91
2023-04-09T06:18:32.741Z,96368.00
2023-04-09T06:21:17.965Z,96368.94
2023-04-09T06:24:03.544Z,96373.13
2023-04-09T06:26:49.099Z,96377.31
2023-04-09T06:29:34.302Z,96369.91
2023-04-09T06:32:19.668Z,96371.56
2023-04-09T06:35:05.707Z,96373.34
2023-04-09T06:37:50.936Z,96382.84
2023-04-09T06:40:39.677Z,96385.06
2023-04-09T06:43:24.919Z,96381.50
2023-04-09T06:46:10.061Z,96384.28
2023-04-09T06:48:55.558Z,96380.03
2023-04-09T06:51:41.022Z,96386.88
2023-04-09T06:54:26.190Z,96377.47
2023-04-09T06:57:11.349Z,96380.47
2023-04-09T06:59:56.553Z,96379.78
2023-04-09T07:02:42.066Z,96382.94
2023-04-09T07:05:27.394Z,96386.91
2023-04-09T07:08:12.930Z,96392.34
2023-04-09T07:10:58.214Z,96386.34
2023-04-09T07:13:43.569Z,96399.84
2023-04-09T07:16:28.818Z,96395.94
2023-04-09T07:19:14.148Z,96400.59
2023-04-09T07:21:59.273Z,96394.22
2023-04-09T07:24:44.794Z,96391.66
2023-04-09T07:27:30.096Z,96399.28
2023-04-09T07:30:15.739Z,96394.09
2023-04-09T07:33:01.026Z,96397.84
2023-04-09T07:35:47.039Z,96401.94
2023-04-09T07:38:32.428Z,96396.41
2023-04-09T07:41:17.573Z,96397.44
2023-04-09T07:44:03.821Z,96399.97
2023-04-09T07:46:49.188Z,96401.50
2023-04-09T07:49:37.120Z,96400.88
2023-04-09T07:52:22.556Z,96398.16
2023-04-09T07:55:07.956Z,96400.34
2023-04-09T07:57:53.401Z,96399.41
2023-04-09T08:00:38.849Z,96401.09
2023-04-09T08:03:24.230Z,96393.75
2023-04-09T08:06:09.537Z,96400.03
2023-04-09T08:08:54.924Z,96391.72
2023-04-09T08:11:40.502Z,96392.75
2023-04-09T08:14:25.741Z,96385.25
2023-04-09T08:17:11.094Z,96386.41
2023-04-09T08:19:56.396Z,96383.28
2023-04-09T08:22:42.275Z,96386.41
2023-04-09T08:25:27.596Z,96379.66
2023-04-09T08:28:13.198Z,96381.63
2023-04-09T08:30:58.422Z,96387.19
2023-04-09T08:33:43.542Z,96379.31
2023-04-09T08:36:29.014Z,96374.53
2023-04-09T08:39:16.487Z,96375.00
2023-04-09T08:42:02.309Z,96379.88
2023-04-09T08:44:47.919Z,96381.44
2023-04-09T08:47:34.521Z,96382.75
2023-04-09T08:50:20.642Z,96382.53
2023-04-09T08:53:08.238Z,96379.34
2023-04-09T08:55:53.652Z,96381.09
2023-04-09T08:58:42.577Z,96375.31
2023-04-09T09:01:32.481Z,96373.63
2023-04-09T09:04:18.007Z,96375.50
2023-04-09T09:07:07.203Z,96374.78
2023-04-09T09:09:59.233Z,96376.00
2023-04-09T09:12:44.473Z,96384.13
2023-04-09T09:15:30.920Z,96373.88
2023-04-09T09:18:18.041Z,96378.97
2023-04-09T09:21:17.768Z,96376.31
2023-04-09T09:24:17.164Z,96378.69
2023-04-09T09:27:03.079Z,96378.75
2023-04-09T09:29:48.406Z,96377.50
2023-04-09T09:32:34.531Z,96372.97
2023-04-09T09:35:20.471Z,96373.97
2023-04-09T09:38:05.515Z,96370.88
2023-04-09T09:40:50.634Z,96378.06
2023-04-09T09:43:45.401Z,96369.69
2023-04-09T09:46:35.493Z,96361.66
2023-04-09T09:49:21.218Z,96368.22
2023-04-09T09:52:09.876Z,96365.66
2023-04-09T09:54:55.826Z,96369.00
2023-04-09T09:57:44.382Z,96362.63
2023-04-09T10:00:32.336Z,96353.75
2023-04-09T10:03:24.964Z,96359.16
2023-04-09T10:06:12.103Z,96360.81
2023-04-09T10:08:58.330Z,96354.41
2023-04-09T10:11:47.951Z,96360.94
2023-04-09T10:14:35.897Z,96358.41
2023-04-09T10:17:22.181Z,96346.09
2023-04-09T10:20:41.862Z,96351.22
2023-04-09T10:23:49.479Z,96350.94
2023-04-09T10:26:36.471Z,96342.16
2023-04-09T10:29:28.698Z,96346.44
2023-04-09T10:32:21.225Z,96342.22
2023-04-09T10:35:09.617Z,96339.97
2023-04-09T10:37:54.779Z,96336.16
2023-04-09T10:40:49.588Z,96335.16
2023-04-09T10:43:36.702Z,96342.13
2023-04-09T10:46:34.910Z,96333.22
2023-04-09T10:49:24.381Z,96330.75
2023-04-09T10:52:12.606Z,96330.81
2023-04-09T10:54:57.726Z,96335.28
2023-04-09T10:57:43.227Z,96335.91
2023-04-09T11:00:28.296Z,96335.16
2023-04-09T11:03:30.618Z,96342.56
2023-04-09T11:06:20.733Z,96342.00
2023-04-09T11:09:05.894Z,96339.72
2023-04-09T11:11:54.340Z,96345.97
2023-04-09T11:14:39.671Z,96336.41
2023-04-09T11:17:25.564Z,96343.94
2023-04-09T11:20:11.526Z,96349.88
2023-04-09T11:22:57.292Z,96348.59
2023-04-09T11:25:42.706Z,96346.34
2023-04-09T11:28:28.010Z,96351.69
2023-04-09T11:31:13.321Z,96351.75
2023-04-09T11:33:58.602Z,96350.13
2023-04-09T11:36:43.698Z,96353.19
2023-04-09T11:39:29.208Z,96355.06
2023-04-09T11:42:17.623Z,96355.06
2023-04-09T11:45:04.329Z,96351.03
2023-04-09T11:47:49.841Z,96348.19
2023-04-09T11:50:37.475Z,96352.88
2023-04-09T11:53:24.532Z,96354.28
2023-04-09T11:56:10.404Z,96356.69
2023-04-09T11:58:55.917Z,96352.19
2023-04-09T12:01:41.770Z,96355.25
2023-04-09T12:04:27.181Z,96355.50
2023-04-09T12:07:12.577Z,96358.00
2023-04-09T12:10:04.618Z,96357.88
2023-04-09T12:12:50.255Z,96358.50
2023-04-09T12:15:38.396Z,96356.09
2023-04-09T12:18:23.604Z,96354.25
2023-04-09T12:21:08.738Z,96354.06
2023-04-09T12:23:54.066Z,96352.03
2023-04-09T12:26:39.367Z,96346.19
2023-04-09T12:29:26.192Z,96340.31
2023-04-09T12:32:11.557Z,96343.53
2023-04-09T12:34:57.085Z,96346.34
2023-04-09T12:37:43.793Z,96341.31
2023-04-09T12:40:29.137Z,96352.94
2023-04-09T12:43:14.404Z,96346.47
2023-04-09T12:45:59.920Z,96351.34
2023-04-09T12:48:46.400Z,96352.19
2023-04-09T12:51:31.690Z,96349.34
2023-04-09T12:54:17.541Z,96347.09
2023-04-09T12:57:02.970Z,96345.41
2023-04-09T12:59:48.254Z,96338.06
2023-04-09T13:02:34.580Z,96343.78
2023-04-09T13:05:19.884Z,96350.88
2023-04-09T13:08:05.222Z,96344.22
2023-04-09T13:10:50.717Z,96348.47
2023-04-09T13:13:35.926Z,96347.44
2023-04-09T13:16:21.262Z,96349.53
2023-04-09T13:19:07.747Z,96348.09
2023-04-09T13:21:52.831Z,96347.63
2023-04-09T13:24:39.012Z,96344.13
2023-04-09T13:27:24.263Z,96343.97
2023-04-09T13:30:09.755Z,96333.78
2023-04-09T13:32:55.141Z,96337.47
2023-04-09T13:35:41.000Z,96340.31
2023-04-09T13:38:26.714Z,96338.09
2023-04-09T13:41:11.827Z,96339.47
2023-04-09T13:43:57.149Z,96335.00
2023-04-09T13:46:43.684Z,96338.69
2023-04-09T13:49:30.323Z,96335.00
2023-04-09T13:52:15.823Z,96336.59
2023-04-09T13:55:01.229Z,96339.88
2023-04-09T13:57:46.579Z,96343.53
2023-04-09T14:00:32.542Z,96339.84
2023-04-09T14:03:17.596Z,96342.63
2023-04-09T14:06:03.191Z,96332.41
2023-04-09T14:08:48.509Z,96333.69
2023-04-09T14:11:33.486Z,96339.34
2023-04-09T14:14:19.939Z,96333.88
2023-04-09T14:17:04.980Z,96328.78
2023-04-09T14:19:50.364Z,96328.34
2023-04-09T14:22:38.122Z,96333.44
2023-04-09T14:25:23.362Z,96332.81
2023-04-09T14:28:08.856Z,96322.03
2023-04-09T14:30:54.382Z,96328.38
2023-04-09T14:33:41.535Z,96320.63
2023-04-09T14:36:27.379Z,96325.34
2023-04-09T14:39:12.317Z,96313.34
2023-04-09T14:41:57.757Z,96321.47
2023-04-09T14:44:43.021Z,96313.28
2023-04-09T14:47:28.365Z,96319.59
2023-04-09T14:50:13.716Z,96313.66
2023-04-09T14:52:58.873Z,96323.22
2023-04-09T14:55:44.378Z,96317.31
2023-04-09T14:58:29.475Z,96318.31
2023-04-09T15:01:14.936Z,96324.63
2023-04-09T15:04:00.637Z,96320.59
2023-04-09T15:06:46.257Z,96318.16
2023-04-09T15:09:31.736Z,96320.81
2023-04-09T15:12:16.969Z,96319.78
2023-04-09T15:15:06.071Z,96314.91
2023-04-09T15:17:51.521Z,96310.81
2023-04-09T15:20:40.498Z,96314.47
2023-04-09T15:23:26.049Z,96323.00
2023-04-09T15:26:11.264Z,96319.34
2023-04-09T15:29:07.214Z,96298.19
2023-04-09T15:31:53.347Z,96322.00
2023-04-09T15:34:38.570Z,96312.66
2023-04-09T15:37:24.054Z,96305.59
2023-04-09T15:40:09.601Z,96309.88
2023-04-09T15:42:55.348Z,96309.59
2023-04-09T15:45:41.109Z,96309.16
2023-04-09T15:48:26.621Z,96302.28
2023-04-09T15:51:12.096Z,96304.72
2023-04-09T15:53:57.358Z,96302.56
2023-04-09T15:56:42.861Z,96311.53
2023-04-09T15:59:28.100Z,96307.13
2023-04-09T16:02:13.201Z,96297.41
2023-04-09T16:04:58.356Z,96308.84
2023-04-09T16:07:43.684Z,96313.00
2023-04-09T16:10:28.735Z,96307.31
2023-04-09T16:13:13.735Z,96308.41
2023-04-09T16:15:59.864Z,96302.09
2023-04-09T16:18:44.833Z,96300.47
2023-04-09T16:21:29.841Z,96295.09
2023-04-09T16:24:15.601Z,96284.47
2023-04-09T16:27:01.531Z,96291.53
2023-04-09T16:29:46.986Z,96305.31
2023-04-09T16:32:32.174Z,96304.69
2023-04-09T16:35:17.261Z,96313.66
2023-04-09T16:38:02.620Z,96311.19
2023-04-09T16:40:47.807Z,96306.66
2023-04-09T16:43:32.919Z,96315.59
2023-04-09T16:46:18.242Z,96308.59
2023-04-09T16:49:03.779Z,96314.66
2023-04-09T16:51:51.754Z,96314.03
2023-04-09T16:54:37.026Z,96318.22
2023-04-09T16:57:22.678Z,96327.09
2023-04-09T17:00:08.895Z,96324.66
2023-04-09T17:02:55.694Z,96331.47
2023-04-09T17:05:41.451Z,96321.28
2023-04-09T17:08:26.613Z,96325.66
2023-04-09T17:11:18.025Z,96333.31
2023-04-09T17:14:03.292Z,96332.44
2023-04-09T17:16:48.696Z,96337.44
2023-04-09T17:19:34.089Z,96343.91
2023-04-09T17:22:19.398Z,96351.38
2023-04-09T17:25:04.858Z,96349.66
2023-04-09T17:27:50.254Z,96349.59
2023-04-09T17:30:35.491Z,96352.75
2023-04-09T17:33:20.864Z,96355.31
2023-04-09T17:36:06.203Z,96352.59
2023-04-09T17:38:56.644Z,96355.78
2023-04-09T17:41:45.837Z,96360.13
2023-04-09T17:44:35.079Z,96361.84
2023-04-09T17:47:20.693Z,96368.03
2023-04-09T17:50:07.562Z,96375.19
2023-04-09T17:52:52.874Z,96380.84
2023-04-09T17:55:38.180Z,96371.38
2023-04-09T17:58:24.909Z,96378.38
2023-04-09T18:01:12.617Z,96377.25
2023-04-09T18:03:58.010Z,96382.41
2023-04-09T18:06:43.591Z,96385.94
2023-04-09T18:09:28.626Z,96393.72
2023-04-09T18:12:13.793Z,96397.06
2023-04-09T18:14:58.896Z,96398.94
2023-04-09T18:17:44.526Z,96399.81
2023-04-09T18:20:29.752Z,96400.84
2023-04-09T18:23:15.376Z,96404.84
2023-04-09T18:26:00.526Z,96410.47
2023-04-09T18:28:45.780Z,96413.78
2023-04-09T18:31:31.165Z,96410.00
2023-04-09T18:34:16.835Z,96416.63
2023-04-09T18:37:02.214Z,96419.94
2023-04-09T18:39:47.508Z,96416.22
2023-04-09T18:42:32.531Z,96419.34
2023-04-09T18:45:17.580Z,96418.19
2023-04-09T18:48:03.342Z,96426.44
2023-04-09T18:50:48.974Z,96420.22
2023-04-09T18:53:33.856Z,96420.91
2023-04-09T18:56:20.096Z,96426.97
2023-04-09T18:59:05.709Z,96423.72
2023-04-09T19:01:51.061Z,96428.16
2023-04-09T19:04:40.021Z,96422.88
2023-04-09T19:07:25.889Z,96424.88
2023-04-09T19:10:10.965Z,96425.56
2023-04-09T19:12:55.958Z,96428.00
2023-04-09T19:15:41.203Z,96430.19
2023-04-09T19:18:26.731Z,96434.13
2023-04-09T19:21:12.118Z,96427.91
2023-04-09T19:23:57.311Z,96430.22
2023-04-09T19:26:42.567Z,96435.16
2023-04-09T19:29:27.935Z,96435.00
2023-04-09T19:32:13.397Z,96440.09
2023-04-09T19:34:58.618Z,96440.75
2023-04-09T19:37:44.939Z,96439.47
2023-04-09T19:40:30.452Z,96426.78
2023-04-09T19:43:15.670Z,96430.25
2023-04-09T19:46:06.561Z,96434.84
2023-04-09T19:48:52.392Z,96426.78
2023-04-09T19:51:37.828Z,96440.75
2023-04-09T19:54:23.283Z,96439.13
2023-04-09T19:57:08.635Z,96444.38
2023-04-09T19:59:54.147Z,96434.84
2023-04-09T20:02:41.555Z,96430.25
2023-04-09T20:05:27.224Z,96430.91
2023-04-09T20:08:15.749Z,96434.19
2023-04-09T20:11:01.670Z,96436.66
2023-04-09T20:13:48.175Z,96434.19
2023-04-09T20:16:33.814Z,96432.72
2023-04-09T20:19:19.860Z,96432.06
2023-04-09T20:22:05.488Z,96438.47
2023-04-09T20:24:50.847Z,96439.44
2023-04-09T20:27:35.922Z,96439.44
2023-04-09T20:30:21.631Z,96440.44
2023-04-09T20:33:06.945Z,96439.44
2023-04-09T20:35:53.197Z,96435.19
2023-04-09T20:38:38.440Z,96444.69
2023-04-09T20:41:23.658Z,96436.16
2023-04-09T20:44:09.185Z,96431.22
2023-04-09T20:46:54.486Z,96426.97
2023-04-09T20:49:39.952Z,96420.38
2023-04-09T20:52:28.076Z,96430.09
2023-04-09T20:55:13.548Z,96421.72
2023-04-09T20:58:00.175Z,96423.69
2023-04-09T21:00:45.724Z,96424.03
2023-04-09T21:03:31.379Z,96416.13
2023-04-09T21:06:19.591Z,96422.34
2023-04-09T21:09:04.631Z,96418.94
2023-04-09T21:11:50.025Z,96414.66
2023-04-09T21:14:35.547Z,96408.91
2023-04-09T21:17:21.034Z,96421.06
2023-04-09T21:20:06.855Z,96418.59
2023-04-09T21:22:52.952Z,96426.50
2023-04-09T21:25:38.015Z,96430.75
2023-04-09T21:28:24.246Z,96431.56
2023-04-09T21:31:11.250Z,96432.25
2023-04-09T21:33:57.062Z,96425.00
2023-04-09T21:36:42.325Z,96428.13
2023-04-09T21:39:28.592Z,96426.97
2023-04-09T21:42:13.860Z,96427.13
2023-04-09T21:44:59.021Z,96421.38
2023-04-09T21:47:44.675Z,96421.03
2023-04-09T21:50:32.206Z,96434.84
2023-04-09T21:53:17.482Z,96434.50
2023-04-09T21:56:04.966Z,96429.41
2023-04-09T21:58:50.701Z,96427.78
2023-04-09T22:01:36.399Z,96425.97
2023-04-09T22:04:21.669Z,96427.47
2023-04-09T22:07:06.944Z,96436.84
2023-04-09T22:09:57.752Z,96435.00
2023-04-09T22:12:42.753Z,96435.34
2023-04-09T22:15:28.058Z,96436.47
2023-04-09T22:18:13.418Z,96438.13
2023-04-09T22:20:58.751Z,96432.06
2023-04-09T22:23:44.453Z,96443.88
2023-04-09T22:26:29.494Z,96437.31
2023-04-09T22:29:14.728Z,96440.94
2023-04-09T22:32:00.115Z,96438.47
2023-04-09T22:34:45.299Z,96434.34
2023-04-09T22:37:30.842Z,96432.88
2023-04-09T22:40:16.716Z,96439.78
2023-04-09T22:43:01.649Z,96428.59
2023-04-09T22:45:54.643Z,96435.66
2023-04-09T22:48:44.455Z,96434.84
2023-04-09T22:51:31.701Z,96422.84
2023-04-09T22:54:16.698Z,96423.19
2023-04-09T22:57:02.324Z,96426.97
2023-04-09T22:59:47.555Z,96421.34
2023-04-09T23:02:32.927Z,96420.88
2023-04-09T23:05:18.139Z,96423.97
2023-04-09T23:08:03.549Z,96419.06
2023-04-09T23:10:49.143Z,96419.72
2023-04-09T23:13:33.989Z,96416.75
2023-04-09T23:16:19.343Z,96425.41
2023-04-09T23:19:04.776Z,96424.56
2023-04-09T23:21:50.069Z,96429.50
2023-04-09T23:24:36.410Z,96422.09
2023-04-09T23:27:28.192Z,96416.00
2023-04-09T23:30:17.315Z,96416.34
2023-04-09T23:33:02.460Z,96416.63
2023-04-09T23:35:48.103Z,96413.38
2023-04-09T23:38:33.629Z,96412.03
2023-04-09T23:41:18.963Z,96412.69
2023-04-09T23:44:04.472Z,96409.06
2023-04-09T23:46:49.633Z,96411.84
2023-04-09T23:49:34.794Z,96409.72
2023-04-09T23:52:20.173Z,96407.22
2023-04-09T23:55:08.948Z,96408.69
2023-04-09T23:57:54.479Z,96407.03
